createdAt,value
2019-06-08T00:00:07.957Z,19.26
2019-06-08T00:02:36.430Z,19.26
2019-06-08T00:05:06.625Z,19.25
2019-06-08T00:07:35.157Z,19.22
2019-06-08T00:10:05.966Z,19.19
2019-06-08T00:12:34.445Z,19.15
2019-06-08T00:15:03.246Z,19.11
2019-06-08T00:17:38.592Z,19.09
2019-06-08T00:20:02.001Z,19.06
2019-06-08T00:22:30.576Z,19.04
2019-06-08T00:25:02.300Z,19.03
2019-06-08T00:27:31.026Z,19.00
2019-06-08T00:29:59.616Z,18.97
2019-06-08T00:32:30.220Z,18.94
2019-06-08T00:34:58.783Z,18.91
2019-06-08T00:37:27.281Z,18.88
2019-06-08T00:39:56.944Z,18.86
2019-06-08T00:42:25.683Z,18.84
2019-06-08T00:44:54.163Z,18.84
2019-06-08T00:47:22.802Z,18.83
2019-06-08T00:49:51.327Z,18.84
2019-06-08T00:52:20.966Z,18.85
2019-06-08T00:54:49.767Z,18.86
2019-06-08T00:57:19.752Z,18.87
2019-06-08T00:59:48.331Z,18.88
2019-06-08T01:02:16.846Z,18.89
2019-06-08T01:04:46.607Z,18.90
2019-06-08T01:07:15.087Z,18.90
2019-06-08T01:09:43.582Z,18.92
2019-06-08T01:12:12.119Z,18.93
2019-06-08T01:14:40.601Z,18.92
2019-06-08T01:17:09.083Z,18.92
2019-06-08T01:19:37.707Z,18.92
2019-06-08T01:22:06.267Z,18.92
2019-06-08T01:24:34.761Z,18.96
2019-06-08T01:27:03.294Z,18.99
2019-06-08T01:29:31.769Z,19.04
2019-06-08T01:32:00.255Z,19.07
2019-06-08T01:34:29.129Z,19.09
2019-06-08T01:36:57.643Z,19.13
2019-06-08T01:39:27.278Z,19.14
2019-06-08T01:41:55.931Z,19.17
2019-06-08T01:44:25.655Z,19.18
2019-06-08T01:46:54.342Z,19.20
2019-06-08T01:49:23.987Z,19.23
2019-06-08T01:51:52.527Z,19.26
2019-06-08T01:54:21.016Z,19.30
2019-06-08T01:56:49.547Z,19.36
2019-06-08T01:59:19.260Z,19.42
2019-06-08T02:01:47.722Z,19.46
2019-06-08T02:04:16.255Z,19.53
2019-06-08T02:06:44.747Z,19.58
2019-06-08T02:09:13.217Z,19.65
2019-06-08T02:11:41.752Z,19.73
2019-06-08T02:14:10.250Z,19.80
2019-06-08T02:16:38.753Z,19.87
2019-06-08T02:19:07.290Z,19.93
2019-06-08T02:21:35.780Z,19.98
2019-06-08T02:24:04.402Z,20.02
2019-06-08T02:26:35.195Z,20.07
2019-06-08T02:29:03.235Z,20.11
2019-06-08T02:31:32.769Z,20.13
2019-06-08T02:34:01.980Z,20.15
2019-06-08T02:36:31.601Z,20.17
2019-06-08T02:39:00.673Z,20.18
2019-06-08T02:41:30.786Z,20.19
2019-06-08T02:43:59.422Z,20.20
2019-06-08T02:46:29.078Z,20.21
2019-06-08T02:49:04.152Z,20.21
2019-06-08T02:51:28.800Z,20.20
2019-06-08T02:53:57.964Z,20.17
2019-06-08T02:56:26.981Z,20.12
2019-06-08T02:58:56.796Z,20.07
2019-06-08T03:01:29.543Z,20.04
2019-06-08T03:03:59.907Z,20.00
2019-06-08T03:06:32.231Z,19.96
2019-06-08T03:09:02.449Z,19.92
2019-06-08T03:11:32.554Z,19.86
2019-06-08T03:14:01.311Z,19.83
2019-06-08T03:16:31.247Z,19.79
2019-06-08T03:19:09.837Z,19.76
2019-06-08T03:21:31.403Z,19.73
2019-06-08T03:24:00.007Z,19.68
2019-06-08T03:26:28.536Z,19.64
2019-06-08T03:28:57.022Z,19.62
2019-06-08T03:31:25.505Z,19.57
2019-06-08T03:33:56.347Z,19.53
2019-06-08T03:36:24.223Z,19.48
2019-06-08T03:38:52.694Z,19.43
2019-06-08T03:41:21.204Z,19.37
2019-06-08T03:43:49.691Z,19.35
2019-06-08T03:46:18.234Z,19.33
2019-06-08T03:48:46.737Z,19.31
2019-06-08T03:51:15.211Z,19.28
2019-06-08T03:53:46.389Z,19.25
2019-06-08T03:56:13.938Z,19.21
2019-06-08T03:58:43.345Z,19.19
2019-06-08T04:01:12.617Z,19.17
2019-06-08T04:03:41.795Z,19.16
2019-06-08T04:06:10.557Z,19.15
2019-06-08T04:08:42.842Z,19.15
2019-06-08T04:11:12.414Z,19.17
2019-06-08T04:13:42.055Z,19.19
2019-06-08T04:16:10.862Z,19.20
2019-06-08T04:18:40.371Z,19.21
2019-06-08T04:21:09.583Z,19.23
2019-06-08T04:23:38.080Z,19.24
2019-06-08T04:26:06.604Z,19.24
2019-06-08T04:28:35.091Z,19.26
2019-06-08T04:31:03.581Z,19.27
2019-06-08T04:33:32.088Z,19.28
2019-06-08T04:36:00.564Z,19.27
2019-06-08T04:38:29.049Z,19.26
2019-06-08T04:40:57.586Z,19.20
2019-06-08T04:43:26.240Z,19.21
2019-06-08T04:45:54.716Z,19.19
2019-06-08T04:48:23.249Z,19.17
2019-06-08T04:50:51.719Z,19.17
2019-06-08T04:53:20.196Z,19.16
2019-06-08T04:55:49.327Z,19.17
2019-06-08T04:58:17.981Z,19.19
2019-06-08T05:00:48.736Z,19.21
2019-06-08T05:03:16.737Z,19.23
2019-06-08T05:05:47.413Z,19.21
2019-06-08T05:08:15.743Z,19.21
2019-06-08T05:10:45.251Z,19.20
2019-06-08T05:13:13.828Z,19.23
2019-06-08T05:15:43.214Z,19.26
2019-06-08T05:18:11.971Z,19.26
2019-06-08T05:20:43.369Z,19.24
2019-06-08T05:23:10.663Z,19.18
2019-06-08T05:25:39.187Z,19.12
2019-06-08T05:28:07.672Z,19.04
2019-06-08T05:30:36.920Z,18.97
2019-06-08T05:33:05.453Z,18.90
2019-06-08T05:35:33.931Z,18.86
2019-06-08T05:38:02.433Z,18.84
2019-06-08T05:40:30.959Z,18.80
2019-06-08T05:42:59.459Z,18.81
2019-06-08T05:45:27.950Z,18.81
2019-06-08T05:47:56.475Z,18.84
2019-06-08T05:50:25.025Z,18.86
2019-06-08T05:52:53.526Z,18.90
2019-06-08T05:55:22.043Z,18.94
2019-06-08T05:57:50.672Z,18.96
2019-06-08T06:00:19.293Z,18.99
2019-06-08T06:02:48.923Z,19.02
2019-06-08T06:05:18.260Z,19.03
2019-06-08T06:07:46.897Z,19.06
2019-06-08T06:10:15.502Z,19.10
2019-06-08T06:12:45.291Z,19.13
2019-06-08T06:15:15.251Z,19.14
2019-06-08T06:17:45.999Z,19.16
2019-06-08T06:20:16.671Z,19.21
2019-06-08T06:22:46.292Z,19.34
2019-06-08T06:25:16.881Z,19.45
2019-06-08T06:27:45.934Z,19.58
2019-06-08T06:30:15.779Z,19.73
2019-06-08T06:32:45.865Z,19.83
2019-06-08T06:35:14.790Z,19.92
2019-06-08T06:37:43.798Z,19.97
2019-06-08T06:40:14.003Z,20.04
2019-06-08T06:42:45.998Z,20.16
2019-06-08T06:45:15.377Z,20.27
2019-06-08T06:47:44.194Z,20.34
2019-06-08T06:50:14.254Z,20.45
2019-06-08T06:52:42.868Z,20.53
2019-06-08T06:55:14.396Z,20.62
2019-06-08T06:57:45.104Z,20.68
2019-06-08T07:00:14.138Z,20.77
2019-06-08T07:02:43.582Z,20.83
2019-06-08T07:05:12.314Z,20.83
2019-06-08T07:07:44.114Z,20.86
2019-06-08T07:10:14.603Z,20.89
2019-06-08T07:12:44.481Z,20.95
2019-06-08T07:15:18.594Z,21.02
2019-06-08T07:17:47.995Z,21.08
2019-06-08T07:20:16.761Z,21.16
2019-06-08T07:22:48.100Z,21.25
2019-06-08T07:25:16.997Z,21.33
2019-06-08T07:27:46.438Z,21.41
2019-06-08T07:30:15.051Z,21.52
2019-06-08T07:32:48.012Z,21.59
2019-06-08T07:35:18.493Z,21.63
2019-06-08T07:37:48.657Z,21.65
2019-06-08T07:40:17.415Z,21.67
2019-06-08T07:42:45.921Z,21.70
2019-06-08T07:45:14.551Z,21.74
2019-06-08T07:47:44.632Z,21.83
2019-06-08T07:50:14.835Z,21.92
2019-06-08T07:52:43.357Z,22.03
2019-06-08T07:55:13.686Z,22.16
2019-06-08T07:57:42.348Z,22.19
2019-06-08T08:00:12.383Z,22.20
2019-06-08T08:02:40.973Z,22.20
2019-06-08T08:05:09.653Z,22.17
2019-06-08T08:07:38.367Z,22.13
2019-06-08T08:10:07.836Z,22.09
2019-06-08T08:12:37.631Z,22.08
2019-06-08T08:15:12.189Z,22.11
2019-06-08T08:17:41.777Z,22.10
2019-06-08T08:20:11.840Z,22.09
2019-06-08T08:22:40.410Z,22.13
2019-06-08T08:25:12.583Z,22.23
2019-06-08T08:27:41.091Z,22.36
2019-06-08T08:30:11.018Z,22.43
2019-06-08T08:32:39.537Z,22.41
2019-06-08T08:35:08.747Z,22.36
2019-06-08T08:37:38.042Z,22.29
2019-06-08T08:40:08.819Z,22.28
2019-06-08T08:42:38.670Z,22.41
2019-06-08T08:45:08.687Z,22.49
2019-06-08T08:47:38.676Z,22.55
2019-06-08T08:50:08.670Z,22.61
2019-06-08T08:52:40.542Z,22.68
2019-06-08T08:55:08.347Z,22.82
2019-06-08T08:57:41.142Z,22.74
2019-06-08T09:00:10.780Z,23.03
2019-06-08T09:02:39.399Z,23.13
2019-06-08T09:05:08.674Z,23.19
2019-06-08T09:07:38.489Z,23.21
2019-06-08T09:10:08.518Z,23.22
2019-06-08T09:12:38.030Z,23.17
2019-06-08T09:15:28.779Z,23.09
2019-06-08T09:18:00.944Z,23.02
2019-06-08T09:20:28.760Z,22.88
2019-06-08T09:23:06.642Z,22.74
2019-06-08T09:25:28.052Z,22.63
2019-06-08T09:28:01.234Z,22.52
2019-06-08T09:30:27.615Z,22.35
2019-06-08T09:32:59.094Z,22.20
2019-06-08T09:35:27.996Z,22.11
2019-06-08T09:38:00.793Z,22.00
2019-06-08T09:40:29.930Z,21.92
2019-06-08T09:43:04.087Z,21.86
2019-06-08T09:45:28.941Z,21.80
2019-06-08T09:48:00.468Z,21.75
2019-06-08T09:50:27.982Z,21.71
2019-06-08T09:53:13.093Z,21.67
2019-06-08T09:55:28.751Z,21.66
2019-06-08T09:58:01.964Z,21.63
2019-06-08T10:00:29.226Z,21.63
2019-06-08T10:03:04.563Z,21.62
2019-06-08T10:05:32.597Z,21.61
2019-06-08T10:08:02.847Z,21.62
2019-06-08T10:10:31.369Z,21.64
2019-06-08T10:13:03.545Z,21.72
2019-06-08T10:15:30.167Z,21.77
2019-06-08T10:18:01.026Z,21.85
2019-06-08T10:20:30.898Z,21.95
2019-06-08T10:23:01.556Z,22.10
2019-06-08T10:25:30.674Z,22.25
2019-06-08T10:28:02.822Z,22.42
2019-06-08T10:30:30.427Z,22.61
2019-06-08T10:33:01.618Z,22.81
2019-06-08T10:35:29.318Z,22.97
2019-06-08T10:38:02.759Z,23.07
2019-06-08T10:40:28.742Z,23.15
2019-06-08T10:42:59.800Z,23.20
2019-06-08T10:45:28.652Z,23.20
2019-06-08T10:47:59.339Z,23.18
2019-06-08T10:50:28.820Z,23.13
2019-06-08T10:53:01.281Z,23.10
2019-06-08T10:55:28.059Z,23.08
2019-06-08T10:57:58.098Z,23.07
2019-06-08T11:00:28.241Z,23.11
2019-06-08T11:03:01.301Z,23.23
2019-06-08T11:05:28.128Z,23.29
2019-06-08T11:07:58.875Z,23.30
2019-06-08T11:10:26.938Z,23.35
2019-06-08T11:12:58.216Z,23.37
2019-06-08T11:15:29.790Z,23.38
2019-06-08T11:18:01.551Z,23.40
2019-06-08T11:20:30.238Z,23.43
2019-06-08T11:23:00.719Z,23.43
2019-06-08T11:25:28.820Z,23.46
2019-06-08T11:27:58.670Z,23.46
2019-06-08T11:30:30.435Z,23.52
2019-06-08T11:32:57.934Z,23.60
2019-06-08T11:35:28.502Z,23.71
2019-06-08T11:37:58.469Z,23.76
2019-06-08T11:40:27.830Z,23.79
2019-06-08T11:42:58.588Z,23.86
2019-06-08T11:45:27.199Z,23.84
2019-06-08T11:47:58.308Z,23.82
2019-06-08T11:50:41.556Z,23.82
2019-06-08T11:53:10.605Z,23.79
2019-06-08T11:55:39.649Z,23.74
2019-06-08T11:58:11.831Z,23.70
2019-06-08T12:01:01.895Z,23.67
2019-06-08T12:03:31.328Z,23.66
2019-06-08T12:05:59.874Z,23.67
2019-06-08T12:08:28.727Z,23.77
2019-06-08T12:11:01.962Z,23.92
2019-06-08T12:13:27.954Z,23.98
2019-06-08T12:15:58.910Z,23.92
2019-06-08T12:18:26.961Z,23.86
2019-06-08T12:20:55.710Z,23.83
2019-06-08T12:23:24.406Z,23.76
2019-06-08T12:25:52.887Z,23.77
2019-06-08T12:28:21.373Z,23.78
2019-06-08T12:30:49.884Z,23.77
2019-06-08T12:33:19.852Z,23.86
2019-06-08T12:35:50.711Z,23.82
2019-06-08T12:38:19.250Z,23.73
2019-06-08T12:40:48.545Z,23.70
2019-06-08T12:43:18.935Z,23.64
2019-06-08T12:45:47.513Z,23.66
2019-06-08T12:48:20.462Z,23.66
2019-06-08T12:50:47.825Z,23.63
2019-06-08T12:53:21.201Z,23.63
2019-06-08T12:55:47.591Z,23.68
2019-06-08T12:58:21.630Z,23.67
2019-06-08T13:00:48.273Z,23.64
2019-06-08T13:03:17.189Z,23.60
2019-06-08T13:05:45.736Z,23.62
2019-06-08T13:08:15.295Z,23.58
2019-06-08T13:10:44.649Z,23.63
2019-06-08T13:13:14.409Z,23.69
2019-06-08T13:15:43.277Z,23.73
2019-06-08T13:18:14.047Z,23.80
2019-06-08T13:20:43.756Z,23.85
2019-06-08T13:23:13.095Z,23.92
2019-06-08T13:25:43.934Z,23.96
2019-06-08T13:28:15.427Z,24.03
2019-06-08T13:30:43.847Z,24.17
2019-06-08T13:33:12.457Z,24.27
2019-06-08T13:35:41.063Z,24.34
2019-06-08T13:38:10.587Z,24.43
2019-06-08T13:40:40.356Z,24.44
2019-06-08T13:43:09.122Z,24.36
2019-06-08T13:45:39.435Z,24.33
2019-06-08T13:48:08.939Z,24.41
2019-06-08T13:50:37.697Z,24.39
2019-06-08T13:53:10.550Z,24.38
2019-06-08T13:55:49.660Z,24.35
2019-06-08T13:58:06.638Z,24.31
2019-06-08T14:00:38.470Z,24.29
2019-06-08T14:03:08.482Z,24.27
2019-06-08T14:05:39.207Z,24.21
2019-06-08T14:08:10.561Z,24.26
2019-06-08T14:10:39.720Z,24.31
2019-06-08T14:13:08.203Z,24.25
2019-06-08T14:15:37.993Z,24.19
2019-06-08T14:18:08.800Z,24.25
2019-06-08T14:20:38.647Z,24.30
2019-06-08T14:23:08.958Z,24.23
2019-06-08T14:25:47.932Z,24.19
2019-06-08T14:28:08.112Z,24.14
2019-06-08T14:30:41.256Z,24.10
2019-06-08T14:33:09.715Z,24.07
2019-06-08T14:35:38.376Z,24.16
2019-06-08T14:38:07.238Z,24.26
2019-06-08T14:40:37.576Z,24.35
2019-06-08T14:43:10.431Z,24.42
2019-06-08T14:45:37.847Z,24.37
2019-06-08T14:48:06.491Z,24.48
2019-06-08T14:50:40.301Z,24.60
2019-06-08T14:53:08.305Z,24.64
2019-06-08T14:55:38.492Z,24.61
2019-06-08T14:58:08.183Z,24.49
2019-06-08T15:00:38.004Z,24.41
2019-06-08T15:03:07.691Z,24.32
2019-06-08T15:05:36.625Z,24.23
2019-06-08T15:08:08.119Z,24.15
2019-06-08T15:10:35.562Z,24.22
2019-06-08T15:13:07.762Z,24.28
2019-06-08T15:15:38.118Z,24.33
2019-06-08T15:18:08.443Z,24.46
2019-06-08T15:20:37.941Z,24.53
2019-06-08T15:23:08.323Z,24.59
2019-06-08T15:25:38.724Z,24.51
2019-06-08T15:28:08.902Z,24.47
2019-06-08T15:30:39.145Z,24.47
2019-06-08T15:33:07.614Z,24.43
2019-06-08T15:35:37.670Z,24.37
2019-06-08T15:38:08.402Z,24.31
2019-06-08T15:40:37.871Z,24.20
2019-06-08T15:43:08.677Z,24.10
2019-06-08T15:45:37.077Z,24.11
2019-06-08T15:48:07.801Z,24.19
2019-06-08T15:50:37.868Z,24.11
2019-06-08T15:53:08.336Z,24.00
2019-06-08T15:55:38.304Z,23.93
2019-06-08T15:58:09.010Z,23.89
2019-06-08T16:00:37.443Z,23.83
2019-06-08T16:03:05.928Z,23.76
2019-06-08T16:05:34.458Z,23.66
2019-06-08T16:08:02.930Z,23.66
2019-06-08T16:10:32.312Z,23.67
2019-06-08T16:13:00.930Z,23.84
2019-06-08T16:15:30.977Z,24.02
2019-06-08T16:17:59.604Z,24.14
2019-06-08T16:20:29.429Z,24.22
2019-06-08T16:22:58.154Z,24.18
2019-06-08T16:25:27.562Z,24.08
2019-06-08T16:27:56.434Z,23.94
2019-06-08T16:30:25.137Z,23.77
2019-06-08T16:32:53.633Z,23.59
2019-06-08T16:35:22.161Z,23.46
2019-06-08T16:37:50.640Z,23.37
2019-06-08T16:40:19.119Z,23.29
2019-06-08T16:42:47.641Z,23.22
2019-06-08T16:45:16.249Z,23.18
2019-06-08T16:47:44.732Z,23.16
2019-06-08T16:50:24.095Z,23.15
2019-06-08T16:52:43.485Z,23.13
2019-06-08T16:55:12.029Z,23.12
2019-06-08T16:57:41.298Z,23.34
2019-06-08T17:00:30.368Z,23.42
2019-06-08T17:02:41.623Z,23.48
2019-06-08T17:05:10.263Z,23.54
2019-06-08T17:07:39.740Z,23.60
2019-06-08T17:10:08.864Z,23.87
2019-06-08T17:12:37.392Z,24.08
2019-06-08T17:15:06.749Z,24.04
2019-06-08T17:17:36.520Z,23.99
2019-06-08T17:20:05.855Z,23.89
2019-06-08T17:22:34.569Z,23.78
2019-06-08T17:25:03.854Z,23.83
2019-06-08T17:27:32.678Z,23.72
2019-06-08T17:30:08.070Z,23.62
2019-06-08T17:32:31.782Z,23.51
2019-06-08T17:35:00.294Z,23.41
2019-06-08T17:37:28.826Z,23.34
2019-06-08T17:40:00.486Z,23.58
2019-06-08T17:42:29.969Z,23.96
2019-06-08T17:44:58.463Z,24.32
2019-06-08T17:47:26.977Z,24.73
2019-06-08T17:49:56.216Z,25.07
2019-06-08T17:52:27.899Z,25.20
2019-06-08T17:54:55.995Z,25.22
2019-06-08T17:57:38.582Z,25.10
2019-06-08T17:59:55.742Z,24.93
2019-06-08T18:02:28.151Z,24.68
2019-06-08T18:04:54.678Z,24.40
2019-06-08T18:07:24.516Z,24.08
2019-06-08T18:09:53.016Z,23.78
2019-06-08T18:12:21.983Z,23.48
2019-06-08T18:14:50.473Z,23.23
2019-06-08T18:17:19.130Z,23.03
2019-06-08T18:19:49.628Z,22.86
2019-06-08T18:22:18.720Z,22.72
2019-06-08T18:24:47.885Z,22.59
2019-06-08T18:27:18.033Z,22.51
2019-06-08T18:29:48.808Z,22.42
2019-06-08T18:32:18.107Z,22.37
2019-06-08T18:34:48.156Z,22.28
2019-06-08T18:37:18.285Z,22.17
2019-06-08T18:39:49.484Z,22.09
2019-06-08T18:42:18.026Z,21.98
2019-06-08T18:44:48.562Z,21.89
2019-06-08T18:47:17.787Z,21.81
2019-06-08T18:49:48.350Z,21.73
2019-06-08T18:52:17.903Z,21.63
2019-06-08T18:54:49.563Z,21.54
2019-06-08T18:57:17.683Z,21.44
2019-06-08T18:59:50.962Z,21.33
2019-06-08T19:02:18.028Z,21.23
2019-06-08T19:04:48.071Z,21.16
2019-06-08T19:07:17.550Z,21.08
2019-06-08T19:09:48.090Z,20.98
2019-06-08T19:12:19.516Z,20.90
2019-06-08T19:14:48.008Z,20.83
2019-06-08T19:17:17.616Z,20.75
2019-06-08T19:19:51.619Z,20.67
2019-06-08T19:22:19.029Z,20.61
2019-06-08T19:24:50.646Z,20.52
2019-06-08T19:27:18.463Z,20.46
2019-06-08T19:29:51.377Z,20.40
2019-06-08T19:32:17.647Z,20.34
2019-06-08T19:34:52.231Z,20.29
2019-06-08T19:37:20.691Z,20.23
2019-06-08T19:39:49.348Z,20.19
2019-06-08T19:42:18.063Z,20.13
2019-06-08T19:44:59.298Z,20.10
2019-06-08T19:47:18.105Z,20.06
2019-06-08T19:49:54.471Z,20.00
2019-06-08T19:52:23.131Z,19.95
2019-06-08T19:54:53.875Z,19.89
2019-06-08T19:57:21.916Z,19.83
2019-06-08T19:59:50.414Z,19.75
2019-06-08T20:02:18.959Z,19.70
2019-06-08T20:04:48.852Z,19.64
2019-06-08T20:07:17.970Z,19.59
2019-06-08T20:09:49.714Z,19.53
2019-06-08T20:12:19.643Z,19.50
2019-06-08T20:14:49.886Z,19.47
2019-06-08T20:17:19.358Z,19.44
2019-06-08T20:19:50.493Z,19.40
2019-06-08T20:22:18.454Z,19.36
2019-06-08T20:24:51.406Z,19.33
2019-06-08T20:27:18.638Z,19.30
2019-06-08T20:29:48.306Z,19.26
2019-06-08T20:32:18.190Z,19.21
2019-06-08T20:34:49.313Z,19.18
2019-06-08T20:37:17.539Z,19.13
2019-06-08T20:39:59.302Z,19.10
2019-06-08T20:42:17.432Z,19.06
2019-06-08T20:44:48.632Z,19.01
2019-06-08T20:47:20.690Z,18.98
2019-06-08T20:49:49.379Z,18.93
2019-06-08T20:52:18.468Z,18.88
2019-06-08T20:54:48.922Z,18.83
2019-06-08T20:57:17.214Z,18.80
2019-06-08T20:59:45.759Z,18.76
2019-06-08T21:02:14.284Z,18.74
2019-06-08T21:04:44.449Z,18.70
2019-06-08T21:07:13.294Z,18.67
2019-06-08T21:09:41.752Z,18.63
2019-06-08T21:12:10.264Z,18.57
2019-06-08T21:14:38.792Z,18.52
2019-06-08T21:17:07.631Z,18.47
2019-06-08T21:19:36.509Z,18.45
2019-06-08T21:22:08.013Z,18.40
2019-06-08T21:24:37.139Z,18.36
2019-06-08T21:27:08.169Z,18.33
2019-06-08T21:29:47.442Z,18.27
2019-06-08T21:32:08.151Z,18.22
2019-06-08T21:34:38.034Z,18.16
2019-06-08T21:37:09.052Z,18.12
2019-06-08T21:39:39.079Z,18.09
2019-06-08T21:42:08.307Z,18.05
2019-06-08T21:44:37.308Z,18.00
2019-06-08T21:47:07.853Z,17.95
2019-06-08T21:49:38.239Z,17.89
2019-06-08T21:52:07.347Z,17.85
2019-06-08T21:54:37.570Z,17.81
2019-06-08T21:57:09.391Z,17.75
2019-06-08T21:59:37.847Z,17.69
2019-06-08T22:02:08.178Z,17.65
2019-06-08T22:04:37.292Z,17.62
2019-06-08T22:07:07.110Z,17.58
2019-06-08T22:09:37.426Z,17.56
2019-06-08T22:12:07.145Z,17.53
2019-06-08T22:14:37.800Z,17.48
2019-06-08T22:17:07.859Z,17.44
2019-06-08T22:19:38.086Z,17.43
2019-06-08T22:22:08.431Z,17.39
2019-06-08T22:24:38.416Z,17.37
2019-06-08T22:27:07.343Z,17.33
2019-06-08T22:29:38.149Z,17.30
2019-06-08T22:32:07.672Z,17.26
2019-06-08T22:34:37.233Z,17.23
2019-06-08T22:37:08.352Z,17.19
2019-06-08T22:39:37.448Z,17.17
2019-06-08T22:42:08.356Z,17.14
2019-06-08T22:44:37.507Z,17.11
2019-06-08T22:47:08.134Z,17.08
2019-06-08T22:49:38.378Z,17.05
2019-06-08T22:52:08.207Z,17.02
2019-06-08T22:54:38.304Z,16.97
2019-06-08T22:57:07.995Z,16.93
2019-06-08T22:59:37.297Z,16.90
2019-06-08T23:02:08.902Z,16.89
2019-06-08T23:04:36.170Z,16.88
2019-06-08T23:07:06.313Z,16.86
2019-06-08T23:09:37.176Z,16.84
2019-06-08T23:12:09.113Z,16.82
2019-06-08T23:14:37.642Z,16.80
2019-06-08T23:17:08.493Z,16.78
2019-06-08T23:19:37.377Z,16.75
2019-06-08T23:22:08.321Z,16.75
2019-06-08T23:24:38.234Z,16.74
2019-06-08T23:27:06.761Z,16.73
2019-06-08T23:29:35.241Z,16.72
2019-06-08T23:32:04.877Z,16.73
2019-06-08T23:34:33.950Z,16.72
2019-06-08T23:37:05.667Z,16.71
2019-06-08T23:39:32.636Z,16.69
2019-06-08T23:42:01.635Z,16.68
2019-06-08T23:44:30.220Z,16.68
2019-06-08T23:47:01.167Z,16.66
2019-06-08T23:49:29.289Z,16.66
2019-06-08T23:51:59.652Z,16.63
2019-06-08T23:54:28.153Z,16.63
2019-06-08T23:56:56.735Z,16.60
2019-06-08T23:59:27.565Z,16.59
